KABQ/ABQ METAR and TAF weather

Enter ICAO airport designator
Station Type Date Time Source
KABQ METAR 2019/02/20 06:52 UTC NOAA

KABQ 200652Z 23007KT 10SM FEW040 BKN080 M03/M08 A2985 RMK AO2 SLP130 MTN TOPS OBSC NE-SE T10331083 400171067


Station Type Date Time Source
KABQ Decoded METAR 2019/02/20 06:52 UTC NOAA

ALBUQUERQUE INTERNATIONAL AIRPORT, NM, United States (KABQ) 35-02N 106-36W 1618M
Feb 20, 2019 - 01:52 AM EST / 2019.02.20 0652 UTC
Wind: from the SW (230 degrees) at 8 MPH (7 KT):0
Visibility: 10 mile(s):0
Sky conditions: mostly cloudy
Temperature: 26.1 F (-3.3 C)
Windchill: 17 F (-8 C):1
Dew Point: 17.1 F (-8.3 C)
Relative Humidity: 68%
Pressure (altimeter): 29.85 in. Hg (1010 hPa)
ob: KABQ 200652Z 23007KT 10SM FEW040 BKN080 M03/M08 A2985 RMK AO2 SLP130 MTN TOPS OBSC NE-SE T10331083 400171067
cycle: 7

Station Type Date Time Source
KABQ TAF 2019/02/20 06:22 UTC NOAA

TAF KABQ 200520Z 2006/2106 VRB06KT P6SM BKN110
FM201000 22006KT P6SM SCT120
FM201700 25011KT P6SM SCT120
FM210300 15009KT P6SM BKN120


Example: see airport list